Conchas Dam, New Mexico
Current Conditions -  °F | °C
As of 6:53 PM on Wednesday 22 Oct 2014 (Local Time) from KTCC Reporting Station
Scattered Clouds Scattered Clouds  
Wind Chill: 66°   Ceiling: Unl
Heat Index: 66°   Visibility: 10mi
Dew Point: 56°   Wind: 8mph
Humidity: 70%   Direction: 190°S
Pressure: 30.04"   Gusts: NA
Location:  35.37°N, 104.17°W
Report Text: KTCC 230053Z AUTO 19007KT 10SM SCT110 19/13 A3004 RMK AO2 RAE26 SLP131 P0007 T01890133
Loading
Personal Weather Stations






























Interactive Weather Map
Tropical Storm Tracking
New forecast layout! Learn more

10-Day Weather Forecast

Advertisements
Track Severe Weather on mobile